sensor_id;sensor_type;location;lat;lon;timestamp;temperature;humidity
55673;DHT22;41554;45.366;20.400;2022-09-17T01:52:15;384.40;2329.60
55673;DHT22;41554;45.366;20.400;2022-09-17T01:54:47;384.30;2329.60
55673;DHT22;41554;45.366;20.400;2022-09-17T01:57:31;384.30;2329.60
55673;DHT22;41554;45.366;20.400;2022-09-17T02:00:05;384.30;2329.60
55673;DHT22;41554;45.366;20.400;2022-09-17T02:03:01;384.40;2329.60
55673;DHT22;41554;45.366;20.400;2022-09-17T02:07:58;384.40;2329.60
55673;DHT22;41554;45.366;20.400;2022-09-17T02:10:35;384.40;2329.60
55673;DHT22;41554;45.366;20.400;2022-09-17T02:13:28;384.50;2329.60
55673;DHT22;41554;45.366;20.400;2022-09-17T02:15:56;384.50;2329.60
55673;DHT22;41554;45.366;20.400;2022-09-17T02:18:37;384.50;2329.60
55673;DHT22;41554;45.366;20.400;2022-09-17T02:21:16;384.50;2329.60
55673;DHT22;41554;45.366;20.400;2022-09-17T02:26:46;384.40;2329.60
55673;DHT22;41554;45.366;20.400;2022-09-17T02:29:39;384.50;2329.60
55673;DHT22;41554;45.366;20.400;2022-09-17T02:32:04;384.60;2329.60
55673;DHT22;41554;45.366;20.400;2022-09-17T02:34:30;384.40;2329.60
55673;DHT22;41554;45.366;20.400;2022-09-17T02:36:57;384.40;2329.60
55673;DHT22;41554;45.366;20.400;2022-09-17T02:39:26;384.40;2329.60
55673;DHT22;41554;45.366;20.400;2022-09-17T02:59:24;384.20;2329.60
55673;DHT22;41554;45.366;20.400;2022-09-17T03:04:27;384.10;2329.60
55673;DHT22;41554;45.366;20.400;2022-09-17T03:06:56;384.20;2329.60
55673;DHT22;41554;45.366;20.400;2022-09-17T03:09:24;384.20;2329.60
55673;DHT22;41554;45.366;20.400;2022-09-17T03:11:50;384.30;2329.60
55673;DHT22;41554;45.366;20.400;2022-09-17T03:14:15;384.50;2329.60
55673;DHT22;41554;45.366;20.400;2022-09-17T03:16:41;384.60;2329.60
55673;DHT22;41554;45.366;20.400;2022-09-17T03:19:07;384.70;2329.60
55673;DHT22;41554;45.366;20.400;2022-09-17T03:21:32;384.70;2329.60
55673;DHT22;41554;45.366;20.400;2022-09-17T03:23:58;384.70;2329.60
55673;DHT22;41554;45.366;20.400;2022-09-17T03:26:25;384.70;2329.60
55673;DHT22;41554;45.366;20.400;2022-09-17T03:28:51;384.70;2329.60
55673;DHT22;41554;45.366;20.400;2022-09-17T03:31:17;384.80;2329.60
55673;DHT22;41554;45.366;20.400;2022-09-17T03:33:42;384.90;2329.60
55673;DHT22;41554;45.366;20.400;2022-09-17T03:36:08;384.70;2329.60
55673;DHT22;41554;45.366;20.400;2022-09-17T03:38:34;384.80;2329.60
55673;DHT22;41554;45.366;20.400;2022-09-17T03:41:02;384.80;2329.60
55673;DHT22;41554;45.366;20.400;2022-09-17T03:43:28;384.80;2329.60
55673;DHT22;41554;45.366;20.400;2022-09-17T03:45:54;384.80;2329.60
55673;DHT22;41554;45.366;20.400;2022-09-17T03:48:21;384.90;2329.60
55673;DHT22;41554;45.366;20.400;2022-09-17T03:50:47;384.80;2329.60
55673;DHT22;41554;45.366;20.400;2022-09-17T03:53:13;384.80;2329.60
55673;DHT22;41554;45.366;20.400;2022-09-17T03:55:39;384.80;2329.60
55673;DHT22;41554;45.366;20.400;2022-09-17T03:58:05;384.80;2329.60
55673;DHT22;41554;45.366;20.400;2022-09-17T04:00:31;384.80;2329.60
55673;DHT22;41554;45.366;20.400;2022-09-17T04:02:57;384.70;2329.60
55673;DHT22;41554;45.366;20.400;2022-09-17T04:05:23;384.70;2329.60
55673;DHT22;41554;45.366;20.400;2022-09-17T04:07:49;384.60;2329.60
55673;DHT22;41554;45.366;20.400;2022-09-17T04:10:15;384.80;2329.60
55673;DHT22;41554;45.366;20.400;2022-09-17T04:12:41;384.90;2329.60
55673;DHT22;41554;45.366;20.400;2022-09-17T04:15:07;384.90;2329.60
55673;DHT22;41554;45.366;20.400;2022-09-17T04:17:33;384.90;2329.60
55673;DHT22;41554;45.366;20.400;2022-09-17T04:19:59;409.60;2355.20
55673;DHT22;41554;45.366;20.400;2022-09-17T04:22:25;384.90;2329.60
55673;DHT22;41554;45.366;20.400;2022-09-17T04:24:50;384.90;2329.60
55673;DHT22;41554;45.366;20.400;2022-09-17T04:27:16;384.90;2329.60
55673;DHT22;41554;45.366;20.400;2022-09-17T04:29:42;384.90;2329.60
55673;DHT22;41554;45.366;20.400;2022-09-17T04:32:08;409.60;2355.20
55673;DHT22;41554;45.366;20.400;2022-09-17T04:34:33;409.60;2355.20
55673;DHT22;41554;45.366;20.400;2022-09-17T04:36:59;409.70;2355.20
55673;DHT22;41554;45.366;20.400;2022-09-17T04:39:25;384.90;2329.60
55673;DHT22;41554;45.366;20.400;2022-09-17T04:41:51;384.90;2329.60
55673;DHT22;41554;45.366;20.400;2022-09-17T04:44:17;384.90;2329.60
55673;DHT22;41554;45.366;20.400;2022-09-17T04:46:42;384.90;2329.60
55673;DHT22;41554;45.366;20.400;2022-09-17T04:49:08;409.60;2355.20
55673;DHT22;41554;45.366;20.400;2022-09-17T04:51:34;409.60;2355.20
55673;DHT22;41554;45.366;20.400;2022-09-17T04:53:59;384.90;2329.60
55673;DHT22;41554;45.366;20.400;2022-09-17T04:56:25;409.60;2355.20
55673;DHT22;41554;45.366;20.400;2022-09-17T04:58:51;409.70;2355.20
55673;DHT22;41554;45.366;20.400;2022-09-17T05:01:17;409.60;2355.20
55673;DHT22;41554;45.366;20.400;2022-09-17T05:03:44;384.90;2329.60
55673;DHT22;41554;45.366;20.400;2022-09-17T05:06:10;384.90;2329.60
55673;DHT22;41554;45.366;20.400;2022-09-17T05:08:36;384.90;2329.60
55673;DHT22;41554;45.366;20.400;2022-09-17T05:11:02;384.90;2329.60
55673;DHT22;41554;45.366;20.400;2022-09-17T05:13:28;384.90;2329.60
55673;DHT22;41554;45.366;20.400;2022-09-17T05:15:54;384.90;2329.60
55673;DHT22;41554;45.366;20.400;2022-09-17T05:18:23;384.90;2329.60
55673;DHT22;41554;45.366;20.400;2022-09-17T05:20:48;384.90;2329.60
55673;DHT22;41554;45.366;20.400;2022-09-17T05:23:14;384.90;2329.60
55673;DHT22;41554;45.366;20.400;2022-09-17T05:25:40;384.90;2329.60
55673;DHT22;41554;45.366;20.400;2022-09-17T05:28:06;384.90;2329.60
55673;DHT22;41554;45.366;20.400;2022-09-17T05:30:32;384.90;2329.60
55673;DHT22;41554;45.366;20.400;2022-09-17T05:33:02;384.80;2329.60
55673;DHT22;41554;45.366;20.400;2022-09-17T05:35:28;384.90;2329.60
55673;DHT22;41554;45.366;20.400;2022-09-17T05:38:01;384.80;2329.60
55673;DHT22;41554;45.366;20.400;2022-09-17T05:40:28;384.70;2329.60
55673;DHT22;41554;45.366;20.400;2022-09-17T05:42:58;384.80;2329.60
55673;DHT22;41554;45.366;20.400;2022-09-17T05:45:24;409.60;2355.20
55673;DHT22;41554;45.366;20.400;2022-09-17T05:47:54;384.80;2329.60
55673;DHT22;41554;45.366;20.400;2022-09-17T05:50:20;384.80;2329.60
55673;DHT22;41554;45.366;20.400;2022-09-17T05:52:46;384.80;2329.60
55673;DHT22;41554;45.366;20.400;2022-09-17T05:55:12;384.80;2329.60
55673;DHT22;41554;45.366;20.400;2022-09-17T05:57:37;384.90;2329.60
55673;DHT22;41554;45.366;20.400;2022-09-17T06:00:03;384.80;2329.60
55673;DHT22;41554;45.366;20.400;2022-09-17T06:02:30;384.80;2329.60
55673;DHT22;41554;45.366;20.400;2022-09-17T06:04:55;384.80;2329.60
55673;DHT22;41554;45.366;20.400;2022-09-17T06:07:25;384.80;2329.60
55673;DHT22;41554;45.366;20.400;2022-09-17T06:09:51;384.90;2329.60
55673;DHT22;41554;45.366;20.400;2022-09-17T06:12:16;384.90;2329.60
55673;DHT22;41554;45.366;20.400;2022-09-17T06:14:42;384.90;2329.60
55673;DHT22;41554;45.366;20.400;2022-09-17T06:17:08;384.80;2329.60
55673;DHT22;41554;45.366;20.400;2022-09-17T06:19:33;384.80;2329.60
55673;DHT22;41554;45.366;20.400;2022-09-17T06:21:59;384.80;2329.60
55673;DHT22;41554;45.366;20.400;2022-09-17T06:24:25;384.70;2329.60
55673;DHT22;41554;45.366;20.400;2022-09-17T06:26:51;384.80;2329.60
55673;DHT22;41554;45.366;20.400;2022-09-17T06:29:17;384.90;2329.60
55673;DHT22;41554;45.366;20.400;2022-09-17T06:31:42;384.90;2329.60
55673;DHT22;41554;45.366;20.400;2022-09-17T06:34:11;384.90;2329.60
55673;DHT22;41554;45.366;20.400;2022-09-17T06:36:37;384.90;2329.60
55673;DHT22;41554;45.366;20.400;2022-09-17T06:39:02;384.90;2329.60
55673;DHT22;41554;45.366;20.400;2022-09-17T06:41:28;384.90;2329.60
55673;DHT22;41554;45.366;20.400;2022-09-17T06:43:54;409.60;2355.20
55673;DHT22;41554;45.366;20.400;2022-09-17T06:46:20;384.90;2329.60
55673;DHT22;41554;45.366;20.400;2022-09-17T06:48:46;384.90;2329.60
55673;DHT22;41554;45.366;20.400;2022-09-17T06:51:12;384.90;2329.60
55673;DHT22;41554;45.366;20.400;2022-09-17T06:53:39;409.60;2355.20
55673;DHT22;41554;45.366;20.400;2022-09-17T06:56:06;409.60;2355.20
55673;DHT22;41554;45.366;20.400;2022-09-17T06:58:34;409.60;2355.20
55673;DHT22;41554;45.366;20.400;2022-09-17T07:01:02;409.60;2355.20
55673;DHT22;41554;45.366;20.400;2022-09-17T07:03:29;409.70;2355.20
55673;DHT22;41554;45.366;20.400;2022-09-17T07:05:56;409.60;2355.20
55673;DHT22;41554;45.366;20.400;2022-09-17T07:08:22;409.60;2355.20
55673;DHT22;41554;45.366;20.400;2022-09-17T07:10:48;409.70;2355.20
55673;DHT22;41554;45.366;20.400;2022-09-17T07:13:13;409.70;2355.20
55673;DHT22;41554;45.366;20.400;2022-09-17T07:15:39;409.70;2355.20
55673;DHT22;41554;45.366;20.400;2022-09-17T07:18:09;409.70;2355.20
55673;DHT22;41554;45.366;20.400;2022-09-17T07:20:35;409.80;2355.20
55673;DHT22;41554;45.366;20.400;2022-09-17T07:23:02;409.80;2355.20
55673;DHT22;41554;45.366;20.400;2022-09-17T07:25:27;409.70;2355.20
55673;DHT22;41554;45.366;20.400;2022-09-17T07:27:53;409.90;2355.20
55673;DHT22;41554;45.366;20.400;2022-09-17T07:30:20;409.90;2355.20
55673;DHT22;41554;45.366;20.400;2022-09-17T07:32:46;409.90;2355.20
55673;DHT22;41554;45.366;20.400;2022-09-17T07:35:11;410.00;2355.20
55673;DHT22;41554;45.366;20.400;2022-09-17T07:37:38;409.90;2355.20
55673;DHT22;41554;45.366;20.400;2022-09-17T07:40:04;409.90;2355.20
55673;DHT22;41554;45.366;20.400;2022-09-17T07:42:31;409.90;2355.20
55673;DHT22;41554;45.366;20.400;2022-09-17T07:44:57;409.90;2355.20
55673;DHT22;41554;45.366;20.400;2022-09-17T07:47:23;409.90;2355.20
55673;DHT22;41554;45.366;20.400;2022-09-17T07:49:49;410.00;2355.20
55673;DHT22;41554;45.366;20.400;2022-09-17T07:52:14;409.90;2355.20
55673;DHT22;41554;45.366;20.400;2022-09-17T07:54:40;410.00;2355.20
55673;DHT22;41554;45.366;20.400;2022-09-17T07:57:06;410.10;2355.20
55673;DHT22;41554;45.366;20.400;2022-09-17T07:59:32;410.10;2355.20
55673;DHT22;41554;45.366;20.400;2022-09-17T08:01:58;410.10;2355.20
55673;DHT22;41554;45.366;20.400;2022-09-17T08:04:24;410.10;2355.20
55673;DHT22;41554;45.366;20.400;2022-09-17T08:06:50;410.20;2355.20
55673;DHT22;41554;45.366;20.400;2022-09-17T08:09:16;410.20;2355.20
55673;DHT22;41554;45.366;20.400;2022-09-17T08:11:42;410.20;2355.20
55673;DHT22;41554;45.366;20.400;2022-09-17T08:14:13;410.20;2355.20
55673;DHT22;41554;45.366;20.400;2022-09-17T08:16:40;410.30;2355.20
55673;DHT22;41554;45.366;20.400;2022-09-17T08:19:06;410.20;2355.20
55673;DHT22;41554;45.366;20.400;2022-09-17T18:28:29;333.70;2329.60
55673;DHT22;41554;45.366;20.400;2022-09-17T18:30:55;333.50;2329.60
55673;DHT22;41554;45.366;20.400;2022-09-17T18:33:25;333.40;2329.60
55673;DHT22;41554;45.366;20.400;2022-09-17T18:35:52;333.40;2329.60
55673;DHT22;41554;45.366;20.400;2022-09-17T18:38:22;333.50;2329.60
55673;DHT22;41554;45.366;20.400;2022-09-17T18:40:48;333.40;2329.60
55673;DHT22;41554;45.366;20.400;2022-09-17T18:43:14;333.40;2329.60
55673;DHT22;41554;45.366;20.400;2022-09-17T18:45:40;333.50;2329.60
55673;DHT22;41554;45.366;20.400;2022-09-17T18:48:06;333.40;2329.60
55673;DHT22;41554;45.366;20.400;2022-09-17T18:50:33;333.40;2329.60
55673;DHT22;41554;45.366;20.400;2022-09-17T18:53:00;333.40;2329.60
55673;DHT22;41554;45.366;20.400;2022-09-17T18:55:25;333.40;2329.60
55673;DHT22;41554;45.366;20.400;2022-09-17T18:57:51;333.50;2329.60
55673;DHT22;41554;45.366;20.400;2022-09-17T19:00:18;333.50;2329.60
55673;DHT22;41554;45.366;20.400;2022-09-17T19:02:46;333.50;2329.60
55673;DHT22;41554;45.366;20.400;2022-09-17T19:05:12;333.50;2329.60
55673;DHT22;41554;45.366;20.400;2022-09-17T19:07:43;333.40;2329.60
55673;DHT22;41554;45.366;20.400;2022-09-17T19:10:09;333.40;2329.60
55673;DHT22;41554;45.366;20.400;2022-09-17T19:12:34;333.40;2329.60
55673;DHT22;41554;45.366;20.400;2022-09-17T19:15:00;333.40;2329.60
55673;DHT22;41554;45.366;20.400;2022-09-17T19:17:27;333.40;2329.60
55673;DHT22;41554;45.366;20.400;2022-09-17T19:19:52;333.30;2329.60
55673;DHT22;41554;45.366;20.400;2022-09-17T19:22:18;333.30;2329.60
55673;DHT22;41554;45.366;20.400;2022-09-17T19:24:44;333.40;2329.60
55673;DHT22;41554;45.366;20.400;2022-09-17T19:27:09;333.40;2329.60
55673;DHT22;41554;45.366;20.400;2022-09-17T19:29:35;333.30;2329.60
55673;DHT22;41554;45.366;20.400;2022-09-17T19:32:01;333.30;2329.60
55673;DHT22;41554;45.366;20.400;2022-09-17T19:34:28;333.20;2329.60
55673;DHT22;41554;45.366;20.400;2022-09-17T19:36:54;333.30;2329.60
55673;DHT22;41554;45.366;20.400;2022-09-17T19:39:20;333.30;2329.60
55673;DHT22;41554;45.366;20.400;2022-09-17T19:41:46;333.20;2329.60
55673;DHT22;41554;45.366;20.400;2022-09-17T19:44:11;333.20;2329.60
55673;DHT22;41554;45.366;20.400;2022-09-17T19:46:37;333.20;2329.60
55673;DHT22;41554;45.366;20.400;2022-09-17T19:49:03;333.20;2329.60
55673;DHT22;41554;45.366;20.400;2022-09-17T19:51:29;333.20;2329.60
55673;DHT22;41554;45.366;20.400;2022-09-17T19:53:55;333.40;2329.60
55673;DHT22;41554;45.366;20.400;2022-09-17T19:56:23;333.40;2329.60
55673;DHT22;41554;45.366;20.400;2022-09-17T19:58:50;333.20;2329.60
